createdAt,value
2023-04-06T00:00:10.401Z,59.97
2023-04-06T00:02:38.813Z,60.02
2023-04-06T00:05:08.134Z,59.99
2023-04-06T00:07:36.687Z,59.86
2023-04-06T00:10:06.333Z,59.88
2023-04-06T00:12:34.693Z,59.67
2023-04-06T00:15:03.985Z,59.95
2023-04-06T00:17:33.672Z,60.47
2023-04-06T00:20:02.219Z,59.78
2023-04-06T00:22:30.737Z,59.44
2023-04-06T00:24:58.974Z,59.88
2023-04-06T00:27:27.326Z,60.16
2023-04-06T00:29:55.536Z,59.79
2023-04-06T00:32:23.801Z,59.81
2023-04-06T00:34:53.401Z,59.94
2023-04-06T00:37:21.654Z,60.04
2023-04-06T00:39:49.920Z,60.33
2023-04-06T00:42:19.128Z,60.41
2023-04-06T00:44:47.364Z,60.75
2023-04-06T00:47:15.557Z,60.36
2023-04-06T00:49:43.833Z,60.14
2023-04-06T00:52:13.536Z,60.02
2023-04-06T00:54:41.816Z,59.43
2023-04-06T00:57:10.424Z,59.80
2023-04-06T00:59:38.774Z,59.91
2023-04-06T01:02:07.540Z,60.38
2023-04-06T01:04:36.561Z,60.31
2023-04-06T01:07:04.933Z,60.56
2023-04-06T01:09:35.117Z,60.63
2023-04-06T01:12:04.227Z,60.75
2023-04-06T01:14:32.605Z,60.68
2023-04-06T01:17:02.272Z,60.45
2023-04-06T01:19:30.864Z,60.50
2023-04-06T01:21:59.126Z,60.76
2023-04-06T01:24:28.749Z,61.01
2023-04-06T01:26:57.482Z,61.35
2023-04-06T01:29:25.924Z,61.54
2023-04-06T01:31:54.324Z,61.42
2023-04-06T01:34:22.609Z,61.32
2023-04-06T01:36:51.212Z,61.19
2023-04-06T01:39:19.507Z,61.17
2023-04-06T01:41:49.121Z,61.20
2023-04-06T01:44:19.964Z,61.13
2023-04-06T01:46:48.287Z,60.66
2023-04-06T01:49:16.721Z,60.74
2023-04-06T01:51:44.968Z,60.66
2023-04-06T01:54:13.194Z,60.56
2023-04-06T01:56:41.972Z,60.80
2023-04-06T01:59:11.706Z,61.17
2023-04-06T02:01:40.089Z,61.53
2023-04-06T02:04:08.382Z,61.45
2023-04-06T02:06:36.617Z,61.48
2023-04-06T02:09:04.992Z,61.08
2023-04-06T02:11:33.426Z,61.71
2023-04-06T02:14:02.009Z,61.57
2023-04-06T02:16:31.806Z,61.46
2023-04-06T02:19:00.038Z,61.51
2023-04-06T02:21:28.399Z,61.43
2023-04-06T02:23:56.743Z,61.85
2023-04-06T02:26:25.046Z,61.43
2023-04-06T02:28:53.305Z,61.55
2023-04-06T02:31:21.703Z,61.77
2023-04-06T02:33:51.352Z,61.53
2023-04-06T02:36:19.584Z,61.71
2023-04-06T02:38:47.949Z,61.90
2023-04-06T02:41:16.193Z,61.25
2023-04-06T02:43:44.423Z,61.47
2023-04-06T02:46:12.655Z,61.78
2023-04-06T02:48:40.900Z,61.84
2023-04-06T02:51:10.532Z,61.97
2023-04-06T02:53:38.774Z,61.85
2023-04-06T02:56:08.152Z,62.19
2023-04-06T02:58:36.389Z,62.63
2023-04-06T03:01:05.161Z,62.77
2023-04-06T03:03:33.459Z,62.67
2023-04-06T03:06:01.850Z,63.12
2023-04-06T03:08:31.564Z,63.15
2023-04-06T03:10:59.851Z,63.20
2023-04-06T03:13:28.072Z,63.33
2023-04-06T03:15:56.413Z,63.61
2023-04-06T03:18:26.518Z,63.95
2023-04-06T03:20:55.893Z,64.27
2023-04-06T03:23:24.234Z,64.49
2023-04-06T03:25:53.942Z,64.86
2023-04-06T03:28:22.153Z,65.00
2023-04-06T03:30:51.359Z,65.50
2023-04-06T03:33:19.798Z,65.86
2023-04-06T03:35:48.083Z,66.00
2023-04-06T03:38:16.669Z,65.60
2023-04-06T03:40:44.899Z,66.08
2023-04-06T03:43:14.517Z,65.94
2023-04-06T03:45:42.738Z,66.56
2023-04-06T03:48:11.064Z,66.66
2023-04-06T03:50:39.290Z,67.23
2023-04-06T03:53:07.570Z,67.99
2023-04-06T03:55:35.775Z,68.00
2023-04-06T03:58:04.050Z,68.42
2023-04-06T04:00:33.897Z,68.35
2023-04-06T04:03:03.194Z,68.47
2023-04-06T04:05:31.621Z,69.04
2023-04-06T04:07:59.880Z,68.56
2023-04-06T04:10:28.119Z,68.93
2023-04-06T04:12:56.486Z,69.50
2023-04-06T04:15:24.754Z,69.36
2023-04-06T04:17:54.495Z,69.78
2023-04-06T04:20:22.870Z,69.96
2023-04-06T04:22:51.097Z,70.29
2023-04-06T04:25:19.325Z,70.47
2023-04-06T04:27:47.570Z,70.36
2023-04-06T04:30:16.277Z,70.83
2023-04-06T04:32:44.733Z,70.66
2023-04-06T04:35:14.810Z,70.34
2023-04-06T04:37:43.652Z,70.71
2023-04-06T04:40:13.703Z,71.06
2023-04-06T04:42:42.114Z,71.67
2023-04-06T04:45:11.346Z,71.23
2023-04-06T04:47:39.666Z,71.43
2023-04-06T04:50:09.145Z,71.83
2023-04-06T04:52:40.447Z,71.09
2023-04-06T04:55:09.554Z,70.93
2023-04-06T04:57:37.756Z,71.25
2023-04-06T05:00:07.352Z,71.32
2023-04-06T05:02:35.664Z,71.53
2023-04-06T05:05:04.032Z,71.57
2023-04-06T05:07:32.319Z,71.24
2023-04-06T05:10:01.926Z,71.10
2023-04-06T05:12:30.594Z,71.20
2023-04-06T05:14:58.950Z,70.57
2023-04-06T05:17:27.488Z,70.32
2023-04-06T05:19:56.205Z,70.69
2023-04-06T05:22:24.558Z,70.11
2023-04-06T05:24:52.812Z,70.21
2023-04-06T05:27:22.410Z,70.17
2023-04-06T05:29:51.248Z,70.01
2023-04-06T05:32:22.889Z,69.21
2023-04-06T05:34:51.576Z,69.10
2023-04-06T05:37:19.898Z,68.67
2023-04-06T05:39:48.153Z,68.41
2023-04-06T05:42:16.363Z,68.00
2023-04-06T05:44:46.019Z,67.35
2023-04-06T05:47:14.232Z,66.79
2023-04-06T05:49:44.572Z,65.70
2023-04-06T05:52:12.811Z,64.85
2023-04-06T05:54:41.053Z,64.32
2023-04-06T05:57:09.279Z,64.08
2023-04-06T05:59:37.875Z,62.70
2023-04-06T06:02:08.092Z,61.92
2023-04-06T06:04:36.524Z,62.06
2023-04-06T06:07:05.136Z,61.48
2023-04-06T06:09:33.471Z,60.49
2023-04-06T06:12:02.632Z,60.05
2023-04-06T06:14:31.020Z,58.82
2023-04-06T06:16:59.385Z,58.04
2023-04-06T06:19:29.074Z,57.46
2023-04-06T06:21:57.377Z,54.82
2023-04-06T06:24:26.308Z,54.60
2023-04-06T06:26:54.533Z,54.20
2023-04-06T06:29:22.819Z,52.35
2023-04-06T06:31:51.068Z,52.78
2023-04-06T06:34:19.331Z,52.99
2023-04-06T06:36:50.514Z,52.45
2023-04-06T06:39:20.563Z,51.66
2023-04-06T06:41:48.837Z,51.32
2023-04-06T06:44:17.639Z,51.16
2023-04-06T06:46:46.112Z,49.81
2023-04-06T06:49:15.244Z,49.33
2023-04-06T06:51:43.455Z,48.78
2023-04-06T06:54:13.074Z,49.11
2023-04-06T06:56:41.414Z,49.29
2023-04-06T06:59:09.771Z,48.53
2023-04-06T07:01:39.301Z,48.41
2023-04-06T07:04:08.840Z,48.46
2023-04-06T07:06:37.830Z,48.09
2023-04-06T07:09:06.333Z,47.79
2023-04-06T07:11:35.959Z,47.72
2023-04-06T07:14:04.167Z,47.02
2023-04-06T07:16:32.490Z,46.05
2023-04-06T07:19:00.981Z,45.57
2023-04-06T07:21:29.258Z,44.83
2023-04-06T07:23:57.513Z,43.97
2023-04-06T07:26:27.082Z,43.95
2023-04-06T07:28:56.720Z,43.84
2023-04-06T07:31:25.038Z,43.94
2023-04-06T07:33:53.316Z,43.93
2023-04-06T07:36:23.023Z,43.75
2023-04-06T07:38:51.263Z,44.14
2023-04-06T07:41:19.561Z,43.34
2023-04-06T07:43:47.811Z,43.23
2023-04-06T07:46:17.493Z,42.72
2023-04-06T07:48:45.762Z,42.75
2023-04-06T07:51:15.263Z,42.88
2023-04-06T07:53:43.528Z,42.66
2023-04-06T07:56:11.788Z,43.01
2023-04-06T07:58:40.152Z,43.21
2023-04-06T08:01:08.429Z,43.18
2023-04-06T08:03:38.669Z,43.02
2023-04-06T08:06:07.500Z,41.92
2023-04-06T08:08:35.726Z,42.40
2023-04-06T08:11:04.604Z,42.44
2023-04-06T08:13:32.862Z,43.35
2023-04-06T08:16:02.139Z,42.32
2023-04-06T08:18:30.920Z,41.89
2023-04-06T08:21:00.585Z,41.96
2023-04-06T08:23:28.838Z,41.71
2023-04-06T08:25:57.349Z,41.49
2023-04-06T08:28:25.673Z,41.70
2023-04-06T08:30:53.967Z,41.83
2023-04-06T08:33:22.263Z,41.98
2023-04-06T08:35:50.858Z,41.50
2023-04-06T08:38:20.456Z,41.21
2023-04-06T08:40:50.753Z,41.23
2023-04-06T08:43:23.946Z,40.84
2023-04-06T08:45:52.331Z,40.82
2023-04-06T08:48:21.487Z,40.39
2023-04-06T08:50:49.701Z,40.41
2023-04-06T08:53:22.992Z,40.29
2023-04-06T08:55:53.401Z,40.04
2023-04-06T08:58:35.211Z,39.37
2023-04-06T09:01:13.100Z,38.58
2023-04-06T09:03:42.812Z,39.05
2023-04-06T09:06:13.257Z,39.06
2023-04-06T09:08:43.998Z,39.79
2023-04-06T09:11:13.036Z,39.56
2023-04-06T09:13:49.710Z,39.45
2023-04-06T09:16:18.397Z,38.03
2023-04-06T09:18:47.263Z,36.95
2023-04-06T09:21:19.438Z,37.72
2023-04-06T09:23:49.634Z,37.84
2023-04-06T09:26:19.520Z,38.03
2023-04-06T09:28:49.592Z,37.45
2023-04-06T09:31:23.140Z,35.60
2023-04-06T09:33:52.910Z,35.62
2023-04-06T09:36:22.003Z,34.90
2023-04-06T09:39:00.446Z,34.39
2023-04-06T09:41:30.552Z,34.42
2023-04-06T09:44:07.591Z,35.31
2023-04-06T09:46:55.042Z,35.23
2023-04-06T09:49:30.124Z,33.76
2023-04-06T09:52:03.654Z,33.83
2023-04-06T09:54:34.376Z,34.80
2023-04-06T09:57:14.966Z,35.26
2023-04-06T09:59:52.947Z,35.25
2023-04-06T10:02:34.336Z,35.19
2023-04-06T10:05:11.882Z,33.81
2023-04-06T10:07:58.991Z,33.59
2023-04-06T10:10:31.330Z,34.25
2023-04-06T10:13:01.043Z,33.33
2023-04-06T10:15:31.372Z,33.98
2023-04-06T10:18:01.016Z,32.72
2023-04-06T10:20:38.538Z,32.83
2023-04-06T10:23:16.466Z,33.19
2023-04-06T10:25:56.847Z,33.43
2023-04-06T10:28:26.142Z,33.27
2023-04-06T10:31:00.687Z,33.16
2023-04-06T10:33:29.858Z,33.12
2023-04-06T10:35:58.487Z,33.50
2023-04-06T10:38:39.668Z,33.42
2023-04-06T10:41:13.079Z,34.02
2023-04-06T10:43:43.346Z,34.26
2023-04-06T10:46:12.655Z,33.15
2023-04-06T10:48:42.981Z,34.56
2023-04-06T10:51:14.325Z,33.67
2023-04-06T10:53:45.312Z,34.77
2023-04-06T10:56:17.559Z,34.11
2023-04-06T10:58:49.898Z,34.64
2023-04-06T11:01:19.381Z,34.40
2023-04-06T11:03:48.858Z,34.46
2023-04-06T11:06:24.804Z,34.37
2023-04-06T11:08:54.720Z,34.40
2023-04-06T11:11:27.502Z,34.51
2023-04-06T11:13:58.766Z,35.03
2023-04-06T11:16:29.461Z,35.36
2023-04-06T11:19:00.073Z,35.01
2023-04-06T11:21:37.609Z,34.53
2023-04-06T11:24:14.453Z,34.32
2023-04-06T11:26:46.863Z,34.25
2023-04-06T11:29:16.991Z,33.67
2023-04-06T11:31:48.572Z,33.95
2023-04-06T11:34:20.443Z,33.83
2023-04-06T11:36:51.788Z,32.88
2023-04-06T11:39:26.384Z,33.23
2023-04-06T11:41:59.875Z,33.28
2023-04-06T11:44:35.482Z,33.35
2023-04-06T11:47:05.428Z,32.69
2023-04-06T11:49:35.489Z,33.25
2023-04-06T11:52:04.297Z,33.69
2023-04-06T11:54:34.544Z,34.17
2023-04-06T11:57:05.675Z,34.08
2023-04-06T11:59:34.988Z,33.61
2023-04-06T12:02:04.452Z,33.81
2023-04-06T12:04:33.843Z,33.37
2023-04-06T12:07:02.106Z,33.35
2023-04-06T12:09:30.556Z,33.14
2023-04-06T12:11:59.309Z,33.37
2023-04-06T12:14:28.970Z,32.74
2023-04-06T12:16:57.180Z,32.47
2023-04-06T12:19:26.785Z,32.58
2023-04-06T12:21:55.763Z,32.84
2023-04-06T12:24:24.038Z,32.68
2023-04-06T12:26:59.521Z,32.63
2023-04-06T12:29:36.364Z,32.51
2023-04-06T12:32:04.812Z,32.12
2023-04-06T12:34:33.058Z,31.81
2023-04-06T12:37:01.700Z,32.05
2023-04-06T12:39:31.160Z,32.44
2023-04-06T12:41:59.610Z,32.52
2023-04-06T12:44:27.860Z,32.34
2023-04-06T12:46:57.729Z,32.88
2023-04-06T12:49:26.499Z,32.91
2023-04-06T12:51:54.856Z,32.92
2023-04-06T12:54:23.078Z,33.06
2023-04-06T12:56:51.436Z,32.78
2023-04-06T12:59:19.796Z,32.59
2023-04-06T13:01:48.108Z,32.51
2023-04-06T13:04:17.900Z,32.63
2023-04-06T13:06:46.142Z,32.46
2023-04-06T13:09:14.478Z,32.11
2023-04-06T13:11:42.723Z,32.10
2023-04-06T13:14:11.549Z,32.20
2023-04-06T13:16:40.442Z,32.42
2023-04-06T13:19:08.939Z,32.10
2023-04-06T13:21:38.517Z,33.35
2023-04-06T13:24:07.054Z,31.95
2023-04-06T13:26:35.331Z,32.00
2023-04-06T13:29:03.988Z,32.05
2023-04-06T13:31:32.462Z,32.43
2023-04-06T13:34:01.147Z,32.41
2023-04-06T13:36:29.475Z,31.66
2023-04-06T13:38:59.438Z,31.84
2023-04-06T13:41:28.406Z,31.57
2023-04-06T13:43:58.807Z,31.79
2023-04-06T13:46:28.899Z,32.36
2023-04-06T13:48:57.224Z,31.95
2023-04-06T13:51:25.488Z,31.99
2023-04-06T13:53:54.646Z,31.79
2023-04-06T13:56:24.238Z,31.61
2023-04-06T13:58:55.838Z,32.07
2023-04-06T14:01:24.190Z,32.00
2023-04-06T14:03:52.590Z,32.19
2023-04-06T14:06:31.258Z,31.76
2023-04-06T14:09:00.342Z,31.77
2023-04-06T14:11:30.340Z,31.20
2023-04-06T14:13:58.785Z,31.53
2023-04-06T14:16:27.589Z,32.11
2023-04-06T14:18:58.664Z,32.29
2023-04-06T14:21:27.553Z,31.83
2023-04-06T14:23:58.007Z,33.09
2023-04-06T14:26:29.782Z,32.26
2023-04-06T14:28:58.063Z,32.22
2023-04-06T14:31:26.206Z,32.16
2023-04-06T14:33:54.991Z,32.30
2023-04-06T14:36:23.151Z,32.43
2023-04-06T14:38:51.376Z,32.22
2023-04-06T14:41:20.287Z,32.38
2023-04-06T14:43:50.049Z,32.46
2023-04-06T14:46:18.213Z,32.57
2023-04-06T14:48:47.166Z,32.63
2023-04-06T14:51:15.590Z,32.65
2023-04-06T14:53:44.224Z,32.55
2023-04-06T14:56:12.485Z,32.58
2023-04-06T14:58:40.587Z,32.73
2023-04-06T15:01:10.054Z,32.92
2023-04-06T15:03:38.335Z,32.55
2023-04-06T15:06:07.822Z,32.66
2023-04-06T15:08:35.970Z,32.21
2023-04-06T15:11:04.035Z,32.76
2023-04-06T15:13:32.204Z,32.90
2023-04-06T15:16:02.012Z,32.82
2023-04-06T15:18:31.730Z,32.81
2023-04-06T15:20:59.864Z,32.85
2023-04-06T15:23:30.471Z,32.76
2023-04-06T15:25:58.944Z,33.43
2023-04-06T15:28:27.025Z,33.15
2023-04-06T15:30:58.078Z,33.06
2023-04-06T15:33:27.261Z,33.25
2023-04-06T15:35:56.824Z,33.52
2023-04-06T15:38:24.917Z,33.61
2023-04-06T15:40:53.263Z,33.48
2023-04-06T15:43:21.769Z,33.72
2023-04-06T15:45:49.861Z,33.41
2023-04-06T15:48:19.195Z,33.70
2023-04-06T15:50:47.357Z,33.67
2023-04-06T15:53:17.085Z,34.02
2023-04-06T15:55:45.478Z,34.02
2023-04-06T15:58:13.794Z,34.20
2023-04-06T16:00:42.302Z,34.46
2023-04-06T16:03:10.560Z,34.46
2023-04-06T16:05:48.432Z,34.10
2023-04-06T16:08:28.468Z,34.28
2023-04-06T16:10:56.587Z,34.57
2023-04-06T16:13:24.731Z,34.92
2023-04-06T16:15:53.882Z,35.37
2023-04-06T16:18:22.090Z,34.92
2023-04-06T16:20:51.235Z,35.14
2023-04-06T16:23:19.392Z,34.92
2023-04-06T16:25:50.251Z,35.32
2023-04-06T16:28:18.669Z,35.33
2023-04-06T16:30:47.062Z,34.97
2023-04-06T16:33:16.991Z,35.22
2023-04-06T16:35:45.984Z,35.45
2023-04-06T16:38:14.483Z,35.52
2023-04-06T16:40:42.703Z,35.46
2023-04-06T16:43:12.461Z,34.97
2023-04-06T16:45:41.365Z,35.62
2023-04-06T16:48:09.538Z,35.98
2023-04-06T16:50:37.770Z,36.29
2023-04-06T16:53:05.967Z,36.42
2023-04-06T16:55:34.096Z,36.56
2023-04-06T16:58:02.185Z,36.83
2023-04-06T17:00:31.665Z,36.78
2023-04-06T17:03:00.024Z,36.74
2023-04-06T17:05:28.301Z,37.08
2023-04-06T17:07:56.389Z,37.98
2023-04-06T17:10:33.308Z,39.02
2023-04-06T17:13:06.139Z,39.38
2023-04-06T17:15:35.712Z,39.52
2023-04-06T17:18:03.871Z,39.84
2023-04-06T17:20:32.022Z,40.25
2023-04-06T17:23:00.079Z,40.08
2023-04-06T17:25:28.170Z,40.31
2023-04-06T17:27:56.269Z,40.67
2023-04-06T17:30:24.528Z,40.90
2023-04-06T17:32:54.309Z,41.29
2023-04-06T17:35:22.882Z,41.49
2023-04-06T17:37:51.594Z,41.78
2023-04-06T17:40:19.895Z,42.09
2023-04-06T17:42:48.036Z,42.27
2023-04-06T17:45:16.395Z,42.85
2023-04-06T17:47:44.550Z,42.95
2023-04-06T17:50:14.360Z,43.38
2023-04-06T17:52:42.509Z,42.50
2023-04-06T17:55:11.135Z,42.51
2023-04-06T17:57:41.181Z,42.87
2023-04-06T18:00:12.140Z,42.75
2023-04-06T18:02:40.321Z,42.94
2023-04-06T18:05:09.223Z,42.85
2023-04-06T18:07:38.665Z,42.90
2023-04-06T18:10:08.620Z,42.55
2023-04-06T18:12:36.773Z,42.66
2023-04-06T18:15:06.545Z,43.07
2023-04-06T18:17:36.089Z,43.06
2023-04-06T18:20:04.710Z,43.54
2023-04-06T18:22:34.396Z,43.54
2023-04-06T18:25:04.031Z,43.47
2023-04-06T18:27:32.334Z,43.28
2023-04-06T18:30:01.130Z,43.52
2023-04-06T18:32:30.528Z,44.07
2023-04-06T18:34:58.875Z,44.48
2023-04-06T18:37:27.700Z,44.38
2023-04-06T18:39:55.769Z,43.90
2023-04-06T18:42:25.340Z,44.12
2023-04-06T18:44:53.426Z,44.46
2023-04-06T18:47:21.583Z,44.83
2023-04-06T18:49:50.002Z,44.39
2023-04-06T18:52:18.088Z,44.26
2023-04-06T18:54:46.159Z,44.25
2023-04-06T18:57:14.430Z,44.52
2023-04-06T18:59:43.877Z,44.44
2023-04-06T19:02:14.302Z,44.47
2023-04-06T19:04:42.655Z,44.42
2023-04-06T19:07:11.078Z,44.66
2023-04-06T19:09:39.229Z,45.09
2023-04-06T19:12:07.501Z,45.41
2023-04-06T19:14:35.638Z,45.48
2023-04-06T19:17:05.123Z,45.67
2023-04-06T19:19:33.270Z,45.97
2023-04-06T19:22:01.664Z,45.79
2023-04-06T19:24:30.093Z,45.59
2023-04-06T19:26:58.274Z,45.69
2023-04-06T19:29:26.614Z,45.33
2023-04-06T19:31:54.805Z,45.48
2023-04-06T19:34:24.586Z,45.51
2023-04-06T19:36:52.775Z,45.59
2023-04-06T19:39:21.639Z,46.26
2023-04-06T19:41:49.798Z,46.03
2023-04-06T19:44:18.032Z,45.52
2023-04-06T19:46:46.502Z,45.52
2023-04-06T19:49:14.727Z,45.87
2023-04-06T19:51:44.195Z,46.07
2023-04-06T19:54:12.317Z,46.57
2023-04-06T19:56:40.860Z,46.21
2023-04-06T19:59:10.904Z,46.01
2023-04-06T20:01:39.103Z,46.21
2023-04-06T20:04:07.571Z,46.19
2023-04-06T20:06:35.938Z,46.29
2023-04-06T20:09:05.638Z,46.29
2023-04-06T20:11:35.471Z,46.46
2023-04-06T20:14:03.769Z,45.99
2023-04-06T20:16:32.029Z,46.03
2023-04-06T20:19:00.397Z,46.10
2023-04-06T20:21:28.748Z,46.11
2023-04-06T20:23:56.902Z,45.35
2023-04-06T20:26:26.354Z,46.05
2023-04-06T20:28:54.523Z,45.96
2023-04-06T20:31:27.348Z,46.26
2023-04-06T20:33:55.622Z,45.98
2023-04-06T20:36:24.195Z,46.34
2023-04-06T20:38:52.279Z,45.98
2023-04-06T20:41:21.814Z,46.19
2023-04-06T20:43:51.246Z,46.00
2023-04-06T20:46:19.357Z,46.21
2023-04-06T20:48:47.520Z,46.62
2023-04-06T20:51:24.390Z,46.17
2023-04-06T20:53:53.407Z,46.21
2023-04-06T20:56:21.894Z,45.95
2023-04-06T20:58:51.501Z,46.33
2023-04-06T21:01:19.841Z,46.79
2023-04-06T21:03:48.188Z,46.92
2023-04-06T21:06:16.811Z,47.05
2023-04-06T21:08:44.929Z,46.52
2023-04-06T21:11:13.069Z,46.88
2023-04-06T21:13:41.187Z,46.98
2023-04-06T21:16:11.343Z,46.83
2023-04-06T21:18:39.942Z,46.91
2023-04-06T21:21:08.112Z,47.21
2023-04-06T21:23:36.331Z,47.32
2023-04-06T21:26:04.534Z,47.43
2023-04-06T21:28:32.634Z,47.91
2023-04-06T21:31:00.763Z,48.00
2023-04-06T21:33:31.901Z,48.14
2023-04-06T21:35:59.989Z,48.05
2023-04-06T21:38:28.099Z,48.51
2023-04-06T21:40:56.870Z,47.97
2023-04-06T21:43:25.049Z,48.09
2023-04-06T21:45:53.482Z,48.31
2023-04-06T21:48:21.763Z,48.92
2023-04-06T21:50:51.362Z,48.47
2023-04-06T21:53:19.457Z,48.84
2023-04-06T21:55:48.848Z,49.38
2023-04-06T21:58:17.011Z,49.60
2023-04-06T22:00:46.246Z,49.87
2023-04-06T22:03:14.445Z,50.42
2023-04-06T22:05:42.667Z,50.00
2023-04-06T22:08:17.937Z,50.35
2023-04-06T22:10:53.825Z,50.88
2023-04-06T22:13:22.130Z,51.02
2023-04-06T22:15:50.312Z,50.71
2023-04-06T22:18:18.390Z,51.09
2023-04-06T22:20:47.191Z,51.20
2023-04-06T22:23:16.731Z,51.54
2023-04-06T22:25:44.853Z,51.78
2023-04-06T22:28:12.955Z,51.96
2023-04-06T22:30:41.101Z,51.92
2023-04-06T22:33:09.274Z,51.92
2023-04-06T22:35:37.427Z,52.15
2023-04-06T22:38:05.620Z,52.49
2023-04-06T22:40:35.137Z,52.38
2023-04-06T22:43:03.248Z,52.47
2023-04-06T22:45:31.460Z,52.45
2023-04-06T22:47:59.563Z,52.93
2023-04-06T22:50:27.845Z,52.99
2023-04-06T22:52:56.156Z,52.95
2023-04-06T22:55:24.475Z,52.81
2023-04-06T22:57:53.983Z,52.74
2023-04-06T23:00:22.268Z,52.21
2023-04-06T23:02:50.709Z,52.35
2023-04-06T23:05:18.896Z,52.26
2023-04-06T23:07:47.003Z,52.06
2023-04-06T23:10:15.116Z,52.13
2023-04-06T23:12:43.245Z,52.04
2023-04-06T23:15:13.589Z,51.97
2023-04-06T23:17:41.779Z,52.02
2023-04-06T23:20:10.594Z,52.04
2023-04-06T23:22:38.689Z,51.88
2023-04-06T23:25:08.655Z,51.66
2023-04-06T23:27:36.948Z,51.86
2023-04-06T23:30:05.841Z,52.10
2023-04-06T23:32:35.699Z,52.26
2023-04-06T23:35:04.323Z,52.25
2023-04-06T23:37:32.497Z,52.06
2023-04-06T23:40:02.155Z,51.42
2023-04-06T23:42:30.436Z,51.95
2023-04-06T23:45:00.780Z,52.00
2023-04-06T23:47:28.893Z,52.42
2023-04-06T23:49:58.418Z,51.53
2023-04-06T23:52:27.019Z,51.92
2023-04-06T23:54:55.108Z,52.19
2023-04-06T23:57:23.203Z,52.18
2023-04-06T23:59:51.283Z,52.13
